Time;durP1;ratioP1;P1;durP2;ratioP2;P2;SDS_P1;SDS_P2;PMS_P1;PMS_P2;Temp;Humidity;BMP_temperature;BMP_pressure;BME280_temperature;BME280_humidity;BME280_pressure;Samples;Min_cycle;Max_cycle;Signal;HPM_P1;HPM_P2
2022/02/01 00:01:01;;;;;;;;;;;9.40;96.60;;;;;;4955220;28;20047;-80
2022/02/01 00:03:30;;;;;;;;;;;9.30;96.00;;;;;;4955749;28;19920;-76
2022/02/01 00:08:54;;;;;;;16.25;11.63;;;9.30;96.20;;;;;;4954674;28;20493;-76
2022/02/01 00:11:39;;;;;;;17.45;11.82;;;9.30;95.60;;;;;;4953829;28;20035;-78
2022/02/01 00:14:16;;;;;;;21.50;13.32;;;9.20;95.10;;;;;;4940547;29;20038;-78
2022/02/01 00:19:46;;;;;;;18.52;12.40;;;9.20;94.30;;;;;;4953866;29;20144;-78
2022/02/01 00:39:02;;;;;;;18.88;14.13;;;9.20;92.40;;;;;;4953082;29;20078;-71
2022/02/01 00:41:33;;;;;;;19.88;13.07;;;9.10;92.60;;;;;;4937139;29;20023;-68
2022/02/01 00:44:00;;;;;;;18.58;12.80;;;9.10;92.40;;;;;;4954403;28;20034;-67
2022/02/01 00:46:27;;;;;;;19.83;13.68;;;9.10;91.70;;;;;;4954358;28;20027;-67
2022/02/01 00:48:53;;;;;;;21.58;14.07;;;9.10;91.30;;;;;;4954237;29;20023;-71
2022/02/01 00:51:19;;;;;;;20.88;13.68;;;9.10;90.60;;;;;;4954317;29;20633;-74
2022/02/01 00:54:05;;;;;;;18.00;13.05;;;9.10;90.60;;;;;;4953284;28;20075;-76
2022/02/01 00:56:31;;;;;;;18.42;12.73;;;9.10;90.30;;;;;;4954344;29;20046;-74
2022/02/01 00:59:02;;;;;;;19.77;13.38;;;9.00;90.30;;;;;;4954280;28;20024;-71
2022/02/01 01:01:28;;;;;;;20.25;13.35;;;9.00;89.50;;;;;;4954028;29;20058;-70
2022/02/01 01:03:54;;;;;;;19.60;13.15;;;9.00;89.60;;;;;;4954097;28;20027;-70
2022/02/01 01:06:20;;;;;;;23.23;14.57;;;9.00;89.70;;;;;;4954141;28;20059;-73
2022/02/01 01:08:48;;;;;;;19.55;13.93;;;9.00;90.00;;;;;;4954256;28;20110;-73
2022/02/01 01:11:13;;;;;;;22.15;14.00;;;9.00;88.90;;;;;;4951793;28;20027;-75
2022/02/01 01:14:20;;;;;;;19.77;13.05;;;9.00;89.00;;;;;;4953883;29;20508;-69
2022/02/01 01:43:49;;;;;;;;;;;8.80;85.00;;;;;;4953701;28;20046;-75
2022/02/01 01:54:25;;;;;;;17.13;11.25;;;8.80;84.50;;;;;;4952611;28;20444;-75
2022/02/01 01:56:57;;;;;;;17.25;11.77;;;8.70;84.10;;;;;;4936731;29;20137;-69
2022/02/01 01:59:25;;;;;;;16.92;10.93;;;8.70;85.10;;;;;;4953330;29;20038;-68
2022/02/01 02:01:52;;;;;;;17.38;10.68;;;8.70;82.90;;;;;;4953290;29;20456;-74
2022/02/01 02:04:18;;;;;;;18.58;11.00;;;8.70;84.20;;;;;;4953498;28;20038;-70
2022/02/01 02:06:44;;;;;;;17.98;10.50;;;8.70;83.70;;;;;;4936331;29;20031;-76
2022/02/01 02:09:12;;;;;;;17.50;10.13;;;8.70;83.50;;;;;;4952457;28;20499;-68
2022/02/01 02:11:52;;;;;;;16.60;11.00;;;8.60;83.10;;;;;;4956983;29;20388;-79
2022/02/01 02:14:21;;;;;;;16.15;9.82;;;8.60;82.30;;;;;;4954918;28;20043;-70
2022/02/01 02:16:49;;;;;;;15.80;10.15;;;8.60;80.60;;;;;;4956812;28;20031;-70
2022/02/01 02:19:16;;;;;;;18.00;9.77;;;8.60;81.20;;;;;;4956983;29;20357;-69
2022/02/01 02:21:47;;;;;;;14.73;9.45;;;8.60;81.40;;;;;;4956925;29;20099;-70
2022/02/01 02:24:13;;;;;;;16.55;9.52;;;8.60;81.40;;;;;;4954327;28;20031;-67
2022/02/01 02:26:41;;;;;;;17.45;9.30;;;8.60;80.80;;;;;;4956501;29;20086;-69
2022/02/01 02:29:06;;;;;;;17.52;9.90;;;8.60;81.00;;;;;;4956738;28;20038;-74
2022/02/01 02:31:38;;;;;;;16.90;10.20;;;8.60;80.80;;;;;;4954128;28;20023;-75
2022/02/01 02:34:10;;;;;;;16.13;10.10;;;8.60;80.80;;;;;;4956565;28;20115;-65
2022/02/01 02:36:43;;;;;;;15.98;10.10;;;8.50;80.50;;;;;;4955340;29;20463;-64
2022/02/01 02:39:19;;;;;;;15.75;9.38;;;8.50;79.90;;;;;;4956483;29;20019;-68
2022/02/01 02:42:09;;;;;;;15.77;9.45;;;8.50;81.00;;;;;;4956799;29;20035;-65
2022/02/01 02:47:25;;;;;;;15.55;9.40;;;8.50;79.90;;;;;;4955577;29;20563;-71
2022/02/01 02:49:51;;;;;;;14.70;9.48;;;8.50;80.70;;;;;;4956388;29;20465;-65
2022/02/01 02:52:18;;;;;;;19.13;10.38;;;8.40;80.10;;;;;;4939216;29;20031;-69
2022/02/01 02:54:43;;;;;;;17.42;9.23;;;8.40;79.60;;;;;;4939408;29;20429;-65
2022/02/01 02:57:11;;;;;;;17.08;10.75;;;8.40;80.40;;;;;;4956202;29;20027;-66
2022/02/01 02:59:38;;;;;;;15.23;9.93;;;8.40;79.70;;;;;;4955324;29;20035;-76
2022/02/01 03:02:06;;;;;;;16.50;10.73;;;8.40;80.40;;;;;;4955618;29;20078;-74
2022/02/01 03:04:34;;;;;;;16.02;10.10;;;8.40;79.80;;;;;;4953775;29;20023;-66
2022/02/01 03:07:02;;;;;;;17.48;10.90;;;8.50;80.00;;;;;;4956264;29;20023;-69
2022/02/01 03:09:30;;;;;;;18.27;11.00;;;8.40;79.50;;;;;;4956135;28;20031;-69
2022/02/01 03:11:59;;;;;;;18.20;11.15;;;8.40;78.40;;;;;;4956241;29;20035;-68
2022/02/01 03:14:28;;;;;;;17.55;11.23;;;8.40;78.80;;;;;;4954753;28;20038;-67
2022/02/01 03:22:10;;;;;;;16.27;11.55;;;8.40;77.70;;;;;;4954907;28;20031;-64
2022/02/01 03:24:36;;;;;;;19.35;11.05;;;8.50;77.60;;;;;;4955560;29;20435;-66
2022/02/01 03:27:02;;;;;;;18.75;12.05;;;8.40;77.50;;;;;;4956085;29;20090;-80
2022/02/01 03:29:28;;;;;;;18.45;11.00;;;8.40;77.60;;;;;;4955978;29;20043;-79
2022/02/01 03:31:56;;;;;;;19.10;11.60;;;8.40;77.60;;;;;;4957075;29;20030;-80
2022/02/01 03:37:11;;;;;;;19.38;11.50;;;8.40;77.30;;;;;;4928353;29;20034;-81
2022/02/01 03:39:38;;;;;;;20.98;12.75;;;8.40;77.50;;;;;;4956796;28;20444;-80
2022/02/01 03:42:04;;;;;;;20.02;12.40;;;8.40;77.50;;;;;;4956718;29;20027;-74
2022/02/01 03:44:32;;;;;;;21.40;12.25;;;8.30;77.70;;;;;;4955508;28;20023;-72
2022/02/01 03:47:07;;;;;;;21.20;13.35;;;8.30;77.50;;;;;;4955297;28;20019;-65
2022/02/01 03:49:36;;;;;;;21.80;13.13;;;8.30;77.20;;;;;;4955191;29;20026;-68
2022/02/01 03:52:04;;;;;;;22.05;12.70;;;8.30;77.40;;;;;;4955283;28;20026;-80
2022/02/01 03:54:32;;;;;;;22.80;13.48;;;8.30;77.00;;;;;;4957498;28;20050;-77
2022/02/01 03:57:00;;;;;;;18.10;12.90;;;8.40;76.80;;;;;;4957789;29;20034;-77
2022/02/01 03:59:26;;;;;;;20.75;13.30;;;8.40;76.60;;;;;;4960352;29;20031;-79
2022/02/01 04:01:55;;;;;;;21.48;13.30;;;8.40;76.70;;;;;;4956628;29;20066;-78
2022/02/01 04:04:28;;;;;;;20.08;13.35;;;8.40;75.80;;;;;;4956412;28;20043;-79
2022/02/01 04:06:54;;;;;;;18.75;9.90;;;8.40;76.80;;;;;;4956364;29;20031;-78
2022/02/01 04:09:24;;;;;;;18.80;12.70;;;8.30;75.90;;;;;;4956782;29;20043;-63
2022/02/01 04:11:51;;;;;;;20.40;12.88;;;8.40;76.50;;;;;;4955501;29;20040;-64
2022/02/01 04:14:21;;;;;;;20.40;13.23;;;8.40;75.80;;;;;;4955136;28;20039;-65
2022/02/01 04:16:47;;;;;;;19.60;12.70;;;8.40;76.10;;;;;;4955062;29;20473;-64
2022/02/01 04:19:13;;;;;;;21.20;13.13;;;8.40;76.20;;;;;;4955201;29;20031;-79
2022/02/01 04:21:43;;;;;;;19.15;13.02;;;8.40;76.30;;;;;;4956141;28;20060;-76
2022/02/01 04:24:09;;;;;;;20.02;13.48;;;8.40;76.40;;;;;;4955935;28;20073;-77
2022/02/01 04:26:34;;;;;;;20.77;12.48;;;8.40;76.00;;;;;;4955584;29;20370;-74
2022/02/01 04:29:00;;;;;;;21.05;13.57;;;8.40;76.20;;;;;;4955215;29;20031;-74
2022/02/01 04:31:26;;;;;;;22.67;13.23;;;8.40;77.20;;;;;;4955273;28;20440;-79
2022/02/01 04:33:51;;;;;;;21.05;13.48;;;8.40;75.60;;;;;;4955036;28;20035;-78
2022/02/01 04:36:17;;;;;;;24.15;13.82;;;8.40;75.40;;;;;;4938357;29;20041;-69
2022/02/01 04:38:52;;;;;;;24.10;14.38;;;8.40;75.50;;;;;;4955099;29;20080;-69
2022/02/01 04:41:22;;;;;;;22.75;14.52;;;8.40;75.00;;;;;;4955010;29;20066;-73
2022/02/01 04:43:47;;;;;;;25.42;14.65;;;8.40;73.20;;;;;;4954820;28;20031;-75
2022/02/01 04:46:15;;;;;;;23.02;15.45;;;8.40;73.10;;;;;;4954789;29;20142;-72
2022/02/01 04:48:40;;;;;;;27.63;16.38;;;8.40;73.40;;;;;;4954794;28;20118;-71
2022/02/01 04:51:07;;;;;;;28.88;16.15;;;8.40;73.10;;;;;;4954787;29;20571;-75
2022/02/01 04:53:33;;;;;;;28.60;16.92;;;8.40;73.30;;;;;;4954337;28;20023;-76
2022/02/01 04:55:59;;;;;;;30.98;18.25;;;8.40;73.40;;;;;;4954684;28;20101;-72
2022/02/01 04:58:25;;;;;;;26.95;18.10;;;8.40;73.20;;;;;;4954487;28;20031;-72
2022/02/01 05:00:51;;;;;;;24.45;16.42;;;8.40;72.90;;;;;;4954556;28;20118;-78
2022/02/01 05:03:18;;;;;;;24.30;16.45;;;8.40;73.20;;;;;;4954355;28;20037;-69
2022/02/01 05:05:44;;;;;;;26.02;17.42;;;8.40;73.00;;;;;;4954734;29;20031;-70
2022/02/01 05:08:12;;;;;;;24.40;17.08;;;8.40;73.00;;;;;;4954504;29;20063;-69
2022/02/01 05:10:38;;;;;;;28.25;16.77;;;8.40;73.60;;;;;;4937869;29;20024;-69
2022/02/01 05:15:45;;;;;;;22.98;14.98;;;8.30;72.40;;;;;;4954722;29;20032;-75
2022/02/01 05:18:16;;;;;;;22.30;14.43;;;8.30;72.00;;;;;;4954593;29;20024;-72
2022/02/01 05:23:08;;;;;;;22.50;14.68;;;8.40;72.00;;;;;;4954527;28;20023;-78
2022/02/01 05:25:34;;;;;;;24.83;13.63;;;8.40;71.70;;;;;;4954688;29;20027;-80
2022/02/01 05:28:01;;;;;;;23.02;14.98;;;8.50;71.80;;;;;;4937191;29;20102;-76
2022/02/01 05:30:27;;;;;;;21.73;13.98;;;8.50;72.20;;;;;;4954580;29;20520;-73
2022/02/01 05:32:54;;;;;;;21.65;13.70;;;8.50;71.60;;;;;;4937019;29;20047;-71
2022/02/01 05:35:21;;;;;;;22.48;14.63;;;8.50;71.90;;;;;;4954445;28;20030;-76
2022/02/01 05:37:47;;;;;;;22.67;14.02;;;8.50;71.60;;;;;;4954459;29;20035;-72
2022/02/01 05:40:12;;;;;;;21.20;13.57;;;8.50;71.90;;;;;;4954339;29;20396;-76
2022/02/01 05:43:03;;;;;;;26.17;14.40;;;8.50;71.80;;;;;;4954107;28;20059;-76
2022/02/01 05:45:25;;;;;;;22.42;14.70;;;8.50;71.60;;;;;;4955728;28;20492;-69
2022/02/01 05:47:52;;;;;;;23.92;14.30;;;8.50;71.50;;;;;;4957724;29;20056;-75
2022/02/01 05:50:18;;;;;;;25.13;14.60;;;8.50;71.90;;;;;;4957724;29;20019;-74
2022/02/01 05:52:44;;;;;;;21.85;14.48;;;8.50;71.60;;;;;;4940571;28;20039;-70
2022/02/01 05:55:11;;;;;;;23.95;13.98;;;8.50;71.70;;;;;;4957643;28;20030;-69
2022/02/01 05:57:38;;;;;;;25.85;14.32;;;8.50;71.80;;;;;;4957895;29;20057;-68
2022/02/01 06:00:06;;;;;;;23.88;13.90;;;8.50;71.70;;;;;;4957710;29;20027;-75
2022/02/01 06:02:31;;;;;;;22.63;14.23;;;8.50;71.90;;;;;;4957563;28;20133;-70
2022/02/01 06:04:57;;;;;;;26.38;14.77;;;8.50;70.90;;;;;;4957856;29;20063;-73
2022/02/01 06:07:23;;;;;;;20.92;13.63;;;8.40;71.30;;;;;;4957570;28;20058;-67
2022/02/01 06:09:48;;;;;;;22.40;13.52;;;8.40;71.30;;;;;;4957644;29;20027;-71
2022/02/01 06:12:14;;;;;;;23.33;14.05;;;8.30;71.40;;;;;;4957696;29;20373;-71
2022/02/01 06:14:40;;;;;;;22.40;14.05;;;8.30;71.20;;;;;;4957457;28;20024;-68
2022/02/01 06:17:09;;;;;;;24.40;15.75;;;8.30;72.10;;;;;;4957444;28;20031;-70
2022/02/01 06:19:38;;;;;;;20.95;14.15;;;8.30;71.50;;;;;;4957533;29;20055;-69
2022/02/01 06:22:05;;;;;;;23.75;16.02;;;8.30;71.70;;;;;;4940242;29;20488;-77
2022/02/01 06:24:33;;;;;;;26.33;17.00;;;8.20;71.70;;;;;;4940737;28;20031;-74
2022/02/01 06:27:02;;;;;;;27.67;16.80;;;8.20;71.40;;;;;;4925372;29;20045;-69
2022/02/01 06:29:28;;;;;;;24.13;15.57;;;8.10;71.50;;;;;;4953651;28;20078;-72
2022/02/01 06:31:53;;;;;;;23.80;15.32;;;8.10;71.50;;;;;;4942985;29;20426;-79
2022/02/01 06:34:20;;;;;;;27.73;16.52;;;8.10;71.20;;;;;;4957212;28;20055;-74
2022/02/01 06:36:47;;;;;;;29.08;16.20;;;8.10;71.40;;;;;;4957250;29;20118;-79
2022/02/01 06:39:14;;;;;;;26.75;16.05;;;8.00;71.00;;;;;;4953069;29;20058;-72
2022/02/01 06:41:40;;;;;;;22.08;15.75;;;8.10;71.50;;;;;;4956562;28;20031;-73
2022/02/01 06:44:07;;;;;;;24.63;15.55;;;8.00;70.90;;;;;;4939742;29;20034;-76
2022/02/01 06:46:34;;;;;;;29.25;15.77;;;8.10;71.40;;;;;;4939952;29;20027;-72
2022/02/01 06:49:00;;;;;;;23.55;15.27;;;8.10;70.30;;;;;;4956979;28;20023;-73
2022/02/01 06:51:28;;;;;;;25.15;16.08;;;8.10;70.20;;;;;;4956809;28;20113;-71
2022/02/01 06:53:56;;;;;;;23.05;14.80;;;8.10;69.80;;;;;;4957312;28;20027;-69
2022/02/01 06:56:28;;;;;;;24.33;14.68;;;8.20;69.80;;;;;;4956423;28;20421;-68
2022/02/01 06:58:57;;;;;;;23.85;15.15;;;8.20;69.20;;;;;;4956683;28;20031;-73
2022/02/01 07:01:24;;;;;;;25.52;15.93;;;8.20;68.70;;;;;;4956761;29;20054;-71
2022/02/01 07:03:55;;;;;;;28.63;16.70;;;8.30;68.80;;;;;;4956746;28;20031;-74
2022/02/01 07:06:20;;;;;;;26.08;15.93;;;8.30;68.80;;;;;;4957334;28;20053;-75
2022/02/01 07:08:48;;;;;;;26.77;15.77;;;8.30;68.30;;;;;;4956558;28;20480;-77
2022/02/01 07:11:16;;;;;;;26.48;15.82;;;8.40;68.00;;;;;;4956889;28;20524;-75
2022/02/01 07:13:43;;;;;;;25.92;14.73;;;8.40;68.10;;;;;;4956588;28;20074;-75
2022/02/01 07:16:09;;;;;;;24.90;15.23;;;8.50;67.90;;;;;;4939716;29;20039;-76
2022/02/01 07:18:36;;;;;;;25.10;15.40;;;8.60;68.20;;;;;;4956402;28;20030;-76
2022/02/01 07:21:02;;;;;;;25.33;15.15;;;8.70;67.70;;;;;;4956569;28;20110;-69
2022/02/01 07:23:29;;;;;;;24.67;15.07;;;8.80;66.80;;;;;;4956362;28;20098;-77
2022/02/01 07:25:56;;;;;;;22.92;14.70;;;8.80;66.30;;;;;;4956611;28;20031;-73
2022/02/01 07:28:26;;;;;;;21.08;13.73;;;8.90;66.90;;;;;;4939257;29;20043;-72
2022/02/01 07:30:55;;;;;;;25.55;13.80;;;9.00;66.00;;;;;;4956274;28;20529;-76
2022/02/01 07:33:22;;;;;;;24.98;14.52;;;9.00;65.80;;;;;;4939240;28;20043;-75
2022/02/01 07:35:49;;;;;;;24.70;14.30;;;9.10;65.50;;;;;;4956084;28;20023;-69
2022/02/01 07:38:18;;;;;;;20.27;12.65;;;9.10;64.20;;;;;;4955943;29;20031;-69
2022/02/01 07:40:45;;;;;;;21.63;14.02;;;9.20;65.00;;;;;;4938598;29;20027;-67
2022/02/01 07:43:12;;;;;;;25.75;14.65;;;9.20;64.70;;;;;;4955923;28;20019;-68
2022/02/01 07:45:40;;;;;;;23.40;14.25;;;9.30;64.30;;;;;;4955716;28;20110;-71
2022/02/01 07:48:06;;;;;;;22.85;14.15;;;9.30;63.60;;;;;;4955613;28;20152;-69
2022/02/01 07:50:32;;;;;;;25.25;14.80;;;9.30;62.90;;;;;;4954967;29;20179;-68
2022/02/01 07:53:00;;;;;;;20.83;12.80;;;9.40;62.80;;;;;;4954853;28;20023;-67
2022/02/01 07:55:26;;;;;;;20.80;13.45;;;9.50;63.10;;;;;;4955289;29;20050;-67
2022/02/01 07:57:52;;;;;;;23.30;12.82;;;9.50;62.60;;;;;;4955144;29;20480;-68
2022/02/01 08:00:19;;;;;;;20.90;13.02;;;9.50;61.20;;;;;;4955253;28;20205;-74
2022/02/01 08:02:45;;;;;;;20.40;12.57;;;9.50;60.60;;;;;;4955727;28;20070;-72
2022/02/01 08:05:11;;;;;;;19.98;12.43;;;9.50;59.90;;;;;;4955193;28;20051;-74
2022/02/01 08:07:38;;;;;;;19.75;11.63;;;9.50;59.40;;;;;;4937712;29;20068;-73
2022/02/01 08:10:10;;;;;;;23.67;12.07;;;9.50;58.50;;;;;;4955478;29;20365;-72
2022/02/01 08:20:46;;;;;;;14.68;8.95;;;9.40;56.20;;;;;;4955352;28;20094;-75
2022/02/01 08:23:12;;;;;;;17.58;9.98;;;9.40;56.00;;;;;;4955127;28;20028;-74
2022/02/01 08:25:40;;;;;;;16.50;9.57;;;9.40;55.90;;;;;;4938259;29;20122;-73
2022/02/01 08:28:06;;;;;;;18.33;10.23;;;9.50;55.40;;;;;;4955595;28;20063;-69
2022/02/01 08:30:32;;;;;;;19.00;9.40;;;9.50;55.70;;;;;;4938263;29;20028;-71
2022/02/01 08:32:58;;;;;;;16.95;9.48;;;9.50;55.40;;;;;;4954826;28;20031;-74
2022/02/01 08:35:25;;;;;;;17.70;8.95;;;9.50;55.30;;;;;;4954968;28;20027;-74
2022/02/01 08:37:52;;;;;;;14.80;8.02;;;9.50;54.60;;;;;;4955154;28;20031;-74
2022/02/01 08:40:19;;;;;;;16.33;8.38;;;9.50;53.60;;;;;;4955371;28;20035;-70
2022/02/01 08:42:46;;;;;;;14.25;7.88;;;9.60;53.50;;;;;;4954847;28;20070;-72
2022/02/01 08:45:14;;;;;;;13.38;7.25;;;9.60;52.80;;;;;;4954980;29;20478;-74
2022/02/01 08:47:40;;;;;;;11.82;6.70;;;9.70;52.80;;;;;;4954773;29;20053;-74
2022/02/01 08:50:06;;;;;;;13.77;7.65;;;9.80;52.80;;;;;;4954925;29;20026;-68
2022/02/01 08:52:40;;;;;;;12.73;7.22;;;9.80;51.70;;;;;;4954831;28;20120;-70
2022/02/01 08:55:10;;;;;;;12.25;6.57;;;9.90;50.90;;;;;;4954815;28;20387;-66
2022/02/01 08:57:39;;;;;;;12.20;5.88;;;9.90;50.30;;;;;;4954993;29;20027;-69
2022/02/01 09:00:07;;;;;;;11.80;5.93;;;10.00;49.80;;;;;;4954924;29;20095;-69
2022/02/01 09:02:33;;;;;;;12.65;6.22;;;10.10;48.60;;;;;;4954275;28;20051;-70
2022/02/01 09:05:00;;;;;;;9.68;5.40;;;10.10;48.50;;;;;;4954806;29;20023;-67
2022/02/01 09:07:26;;;;;;;13.02;5.88;;;10.20;47.60;;;;;;4954688;29;20035;-69
2022/02/01 09:09:51;;;;;;;11.57;5.40;;;10.20;48.10;;;;;;4954679;28;20034;-71
2022/02/01 09:12:18;;;;;;;9.77;5.43;;;10.30;48.40;;;;;;4954941;28;20106;-70
2022/02/01 09:14:47;;;;;;;10.30;4.85;;;10.40;46.90;;;;;;4956288;28;20064;-74
2022/02/01 09:17:14;;;;;;;11.93;5.20;;;10.50;44.80;;;;;;4954744;28;20023;-77
2022/02/01 09:19:44;;;;;;;9.55;4.82;;;10.60;45.00;;;;;;4957667;28;20037;-73
2022/02/01 09:22:13;;;;;;;13.63;4.57;;;10.60;45.60;;;;;;4958538;28;20472;-74
2022/02/01 09:24:43;;;;;;;9.60;4.50;;;10.70;44.90;;;;;;4958249;28;20027;-72
2022/02/01 09:27:10;;;;;;;12.02;5.00;;;10.80;43.90;;;;;;4958145;28;20054;-74
2022/02/01 09:29:37;;;;;;;8.23;4.22;;;10.90;44.30;;;;;;4958448;29;20467;-74
2022/02/01 09:32:04;;;;;;;8.02;4.47;;;10.90;42.80;;;;;;4958776;29;20043;-72
2022/02/01 09:34:30;;;;;;;8.52;4.45;;;11.00;42.60;;;;;;4958585;28;20031;-74
2022/02/01 09:36:57;;;;;;;10.32;4.40;;;11.10;42.60;;;;;;4958642;29;20167;-72
2022/02/01 09:39:25;;;;;;;7.32;3.88;;;11.20;42.20;;;;;;4958594;28;20063;-75
2022/02/01 09:41:52;;;;;;;11.00;4.50;;;11.20;41.80;;;;;;4941386;29;20119;-74
2022/02/01 09:44:19;;;;;;;9.55;3.95;;;11.30;41.80;;;;;;4940871;28;20122;-74
2022/02/01 09:46:48;;;;;;;9.05;4.13;;;11.40;41.80;;;;;;4958824;28;20033;-76
2022/02/01 09:49:19;;;;;;;8.38;3.92;;;11.40;41.70;;;;;;4958349;28;20023;-70
2022/02/01 09:51:51;;;;;;;8.57;3.83;;;11.50;41.50;;;;;;4958450;29;20019;-75
2022/02/01 09:54:17;;;;;;;8.85;3.60;;;11.60;41.40;;;;;;4957864;28;20039;-73
2022/02/01 09:56:44;;;;;;;7.18;3.47;;;11.70;41.50;;;;;;4957902;29;20035;-72
2022/02/01 09:59:19;;;;;;;8.15;3.30;;;11.70;41.00;;;;;;4957918;28;20055;-66
2022/02/01 10:01:55;;;;;;;7.85;3.30;;;11.80;41.10;;;;;;4940234;29;20416;-69
2022/02/01 10:04:27;;;;;;;12.75;3.30;;;11.80;40.90;;;;;;4957377;28;20036;-71
2022/02/01 10:07:03;;;;;;;7.30;3.08;;;11.90;40.80;;;;;;4957668;28;20469;-75
2022/02/01 10:09:30;;;;;;;5.32;2.65;;;11.90;40.90;;;;;;4957340;29;20046;-69
2022/02/01 10:11:57;;;;;;;7.80;3.20;;;12.10;40.50;;;;;;4957675;29;20114;-74
2022/02/01 10:14:29;;;;;;;6.43;2.80;;;12.10;39.80;;;;;;4957043;28;20120;-76
2022/02/01 10:16:58;;;;;;;8.27;3.10;;;12.20;39.30;;;;;;4957093;28;20567;-70
2022/02/01 10:19:24;;;;;;;5.32;2.70;;;12.20;38.90;;;;;;4957134;28;20027;-73
2022/02/01 10:22:00;;;;;;;6.68;2.90;;;12.30;39.30;;;;;;4957132;28;20019;-76
2022/02/01 10:24:41;;;;;;;6.70;2.83;;;12.30;39.10;;;;;;4956971;28;20035;-75
2022/02/01 10:27:18;;;;;;;7.03;2.90;;;12.40;38.10;;;;;;4956798;29;20019;-70
2022/02/01 10:30:15;;;;;;;6.40;2.70;;;12.40;37.60;;;;;;4939087;28;20106;-69
2022/02/01 10:38:05;;;;;;;5.30;2.40;;;12.60;37.50;;;;;;4956819;29;20073;-71
2022/02/01 10:40:42;;;;;;;7.13;2.13;;;12.70;37.70;;;;;;4956448;28;20477;-68
2022/02/01 10:43:27;;;;;;;5.80;2.63;;;12.80;37.30;;;;;;4956894;28;20098;-72
2022/02/01 10:45:55;;;;;;;5.88;2.40;;;12.80;35.60;;;;;;4956642;28;20380;-70
2022/02/01 10:48:24;;;;;;;4.80;2.20;;;12.90;36.90;;;;;;4956535;29;20153;-70
2022/02/01 10:51:09;;;;;;;4.97;2.30;;;12.90;36.80;;;;;;4956424;29;20531;-67
2022/02/01 10:53:36;;;;;;;4.90;2.30;;;13.00;34.80;;;;;;4956822;28;20038;-75
2022/02/01 10:56:04;;;;;;;5.88;2.63;;;13.00;36.10;;;;;;4956757;29;20046;-72
2022/02/01 10:58:31;;;;;;;4.13;2.00;;;13.10;35.90;;;;;;4956651;28;20543;-74
2022/02/01 11:00:57;;;;;;;4.63;2.40;;;13.10;35.10;;;;;;4956478;28;20377;-75
2022/02/01 11:03:24;;;;;;;4.55;2.10;;;13.10;35.20;;;;;;4956799;28;20129;-76
2022/02/01 11:05:52;;;;;;;4.47;2.08;;;13.20;35.80;;;;;;4956546;29;20027;-74
2022/02/01 11:08:22;;;;;;;6.22;2.10;;;13.20;35.50;;;;;;4955687;29;20042;-74
2022/02/01 11:10:52;;;;;;;5.57;2.33;;;13.30;35.60;;;;;;4939486;29;20030;-74
2022/02/01 11:13:20;;;;;;;4.18;1.90;;;13.30;34.90;;;;;;4956320;28;20031;-67
2022/02/01 11:15:59;;;;;;;5.38;2.00;;;13.40;33.40;;;;;;4938938;29;20035;-67
2022/02/01 11:18:27;;;;;;;7.15;2.38;;;13.40;34.30;;;;;;4938679;29;20038;-69
2022/02/01 11:21:14;;;;;;;6.90;2.00;;;13.40;34.50;;;;;;4955894;29;20024;-69
2022/02/01 11:26:21;;;;;;;11.57;1.83;;;13.50;34.60;;;;;;4955708;28;20055;-67
2022/02/01 11:29:13;;;;;;;3.88;1.52;;;13.60;34.20;;;;;;4955730;28;20076;-68
2022/02/01 11:31:47;;;;;;;5.75;1.80;;;13.60;34.50;;;;;;4955788;29;20452;-66
2022/02/01 11:34:19;;;;;;;4.35;1.80;;;13.60;34.10;;;;;;4955504;28;20062;-67
2022/02/01 11:36:45;;;;;;;4.40;1.60;;;13.70;34.20;;;;;;4955560;28;20527;-67
2022/02/01 11:39:15;;;;;;;4.50;1.77;;;13.70;34.00;;;;;;4955809;28;20176;-70
2022/02/01 11:41:43;;;;;;;4.30;1.70;;;13.80;34.60;;;;;;4955308;28;20074;-68
2022/02/01 11:44:19;;;;;;;3.22;1.80;;;13.80;34.30;;;;;;4955439;28;20416;-70
2022/02/01 11:47:11;;;;;;;4.25;2.00;;;13.80;32.80;;;;;;4955643;28;20536;-71
2022/02/01 11:49:59;;;;;;;3.70;1.60;;;13.90;32.50;;;;;;4956116;28;20027;-69
2022/02/01 11:52:26;;;;;;;9.13;1.70;;;13.90;32.30;;;;;;4956821;28;20094;-69
2022/02/01 11:55:05;;;;;;;6.00;1.88;;;14.00;34.10;;;;;;4955755;28;20156;-67
2022/02/01 11:57:31;;;;;;;3.08;1.60;;;14.00;33.70;;;;;;4955589;29;20023;-69
2022/02/01 12:00:00;;;;;;;2.85;1.45;;;14.10;34.10;;;;;;4955384;28;20027;-67
2022/02/01 12:02:34;;;;;;;3.40;1.85;;;14.10;34.20;;;;;;4954945;28;20047;-66
2022/02/01 12:05:29;;;;;;;2.35;1.40;;;14.20;34.20;;;;;;5070563;28;20507;-68
2022/02/01 12:08:17;;;;;;;5.82;1.80;;;14.20;33.60;;;;;;5069532;28;20028;-68
2022/02/01 12:10:49;;;;;;;3.75;1.58;;;14.30;32.10;;;;;;5069989;28;20040;-67
2022/02/01 12:13:21;;;;;;;4.47;1.58;;;14.30;33.30;;;;;;5068424;28;20509;-67
2022/02/01 12:15:48;;;;;;;2.95;1.40;;;14.40;33.00;;;;;;5069968;28;20021;-69
2022/02/01 12:18:29;;;;;;;3.55;1.63;;;14.40;33.20;;;;;;5068702;28;20043;-67
2022/02/01 12:21:07;;;;;;;5.85;1.73;;;14.50;31.30;;;;;;5069843;28;20035;-67
2022/02/01 12:23:34;;;;;;;1.92;1.02;;;14.50;31.00;;;;;;5069639;28;20033;-69
2022/02/01 12:26:00;;;;;;;5.32;1.38;;;14.60;32.30;;;;;;5069566;28;20527;-68
2022/02/01 12:28:27;;;;;;;3.00;1.48;;;14.70;32.20;;;;;;5069622;28;20094;-67
2022/02/01 12:31:10;;;;;;;3.17;1.63;;;14.80;32.80;;;;;;5069468;28;20025;-67
2022/02/01 12:33:40;;;;;;;2.40;1.05;;;14.80;30.70;;;;;;5069578;28;20050;-66
2022/02/01 12:36:07;;;;;;;4.75;1.10;;;14.90;32.60;;;;;;5068100;28;20086;-73
2022/02/01 12:38:33;;;;;;;5.60;1.48;;;14.90;32.10;;;;;;5069638;28;20389;-67
2022/02/01 12:41:13;;;;;;;4.05;1.30;;;15.00;32.20;;;;;;5069402;28;20029;-67
2022/02/01 12:46:52;;;;;;;3.92;1.13;;;15.10;31.00;;;;;;5069336;28;20033;-67
2022/02/01 12:49:19;;;;;;;7.05;1.73;;;15.10;30.60;;;;;;5068888;28;20112;-68
2022/02/01 12:51:49;;;;;;;2.72;1.10;;;15.20;32.10;;;;;;5068851;28;20021;-69
2022/02/01 12:54:26;;;;;;;3.47;1.25;;;15.20;32.30;;;;;;5068682;28;20082;-68
2022/02/01 12:57:03;;;;;;;2.25;1.00;;;15.30;32.10;;;;;;5068980;28;20114;-68
2022/02/01 12:59:42;;;;;;;2.03;1.00;;;15.40;31.80;;;;;;5068823;28;20457;-67
2022/02/01 13:02:11;;;;;;;3.78;0.90;;;15.40;29.80;;;;;;5067015;28;20020;-68
2022/02/01 13:04:36;;;;;;;4.15;1.08;;;15.40;30.60;;;;;;5068440;28;20482;-72
2022/02/01 13:07:11;;;;;;;2.63;1.00;;;15.40;31.00;;;;;;5068456;28;20120;-67
2022/02/01 13:15:23;;;;;;;2.65;1.23;;;15.50;29.70;;;;;;5063364;28;19911;-68
2022/02/01 13:18:12;;;;;;;2.35;0.90;;;15.60;31.70;;;;;;5055460;28;20031;-66
2022/02/01 13:20:40;;;;;;;1.42;0.80;;;15.60;30.20;;;;;;5055233;28;20029;-72
2022/02/01 13:23:34;;;;;;;2.33;1.23;;;15.50;30.50;;;;;;5053360;28;20041;-74
2022/02/01 13:26:07;;;;;;;2.00;0.80;;;15.60;32.10;;;;;;5055116;28;20024;-74
2022/02/01 13:28:33;;;;;;;1.85;0.90;;;15.60;31.20;;;;;;5055010;28;20445;-72
2022/02/01 13:31:12;;;;;;;2.03;1.20;;;15.60;30.90;;;;;;5055015;28;20029;-68
2022/02/01 13:33:56;;;;;;;2.85;0.80;;;15.50;30.20;;;;;;5054701;28;20513;-71
2022/02/01 13:36:22;;;;;;;;;;;15.50;28.80;;;;;;5055616;28;20029;-74
2022/02/01 13:38:57;;;;;;;4.45;1.42;;;15.50;26.20;;;;;;5055623;28;19931;-74
2022/02/01 13:41:25;;;;;;;2.20;0.80;;;15.50;30.00;;;;;;5055174;28;20033;-74
2022/02/01 13:43:56;;;;;;;1.58;0.95;;;15.60;29.60;;;;;;5054478;28;20044;-73
2022/02/01 13:46:28;;;;;;;2.20;1.00;;;15.70;30.00;;;;;;5054653;28;20514;-70
2022/02/01 13:49:08;;;;;;;1.42;0.80;;;15.60;29.70;;;;;;5054635;28;20056;-71
2022/02/01 13:51:49;;;;;;;3.35;1.30;;;15.60;28.70;;;;;;5054608;28;20028;-73
2022/02/01 13:54:15;;;;;;;3.10;1.20;;;15.70;30.10;;;;;;5054581;28;20552;-74
2022/02/01 13:56:49;;;;;;;6.25;1.17;;;15.70;28.80;;;;;;5053609;28;20366;-69
2022/02/01 13:59:27;;;;;;;2.80;0.90;;;15.70;28.40;;;;;;5054973;28;20072;-75
2022/02/01 14:02:05;;;;;;;2.08;1.00;;;15.60;29.10;;;;;;5054708;28;20029;-75
2022/02/01 14:04:39;;;;;;;1.50;0.73;;;15.60;28.30;;;;;;5054370;28;20073;-71
2022/02/01 14:07:35;;;;;;;2.20;0.85;;;15.50;28.30;;;;;;5053594;28;20497;-68
2022/02/01 14:26:37;;;;;;;1.08;0.73;;;15.60;27.90;;;;;;5053901;28;20110;-70
2022/02/01 14:34:14;;;;;;;;;;;15.50;27.70;;;;;;5054461;28;20048;-74
2022/02/01 14:36:42;;;;;;;2.33;1.17;;;15.40;27.60;;;;;;5054193;28;19905;-72
2022/02/01 14:46:44;;;;;;;5.97;1.83;;;15.30;26.80;;;;;;5054685;28;19905;-71
2022/02/01 14:49:10;;;;;;;2.17;1.10;;;15.30;27.80;;;;;;5054289;28;20028;-74
2022/02/01 14:51:36;;;;;;;2.22;0.90;;;15.30;27.80;;;;;;5053940;28;20386;-73
2022/02/01 14:54:05;;;;;;;2.40;1.00;;;15.30;27.20;;;;;;5052556;28;20021;-73
2022/02/01 14:56:35;;;;;;;1.55;0.80;;;15.30;27.40;;;;;;5053954;28;20025;-74
2022/02/01 15:07:23;;;;;;;1.42;0.90;;;15.20;27.20;;;;;;5053678;28;20033;-72
2022/02/01 15:12:46;;;;;;;1.50;0.70;;;15.10;28.10;;;;;;5053569;28;20032;-71
2022/02/01 15:15:14;;;;;;;5.28;0.77;;;15.00;27.70;;;;;;5053746;28;20025;-68